Time;durP1;ratioP1;P1;durP2;ratioP2;P2;SDS_P1;SDS_P2;PMS_P1;PMS_P2;Temp;Humidity;BMP_temperature;BMP_pressure;BME280_temperature;BME280_humidity;BME280_pressure;Samples;Min_cycle;Max_cycle;Signal;HPM_P1;HPM_P2
2022/11/20 00:00:25;;;;;;;;;;;11.60;92.10;;;;;;5118179;27;20330;-65
2022/11/20 00:02:51;;;;;;;;;;;11.80;92.10;;;;;;5116371;28;20440;-65
2022/11/20 00:05:17;;;;;;;;;;;11.80;92.10;;;;;;5099933;27;19932;-65
2022/11/20 00:07:43;;;;;;;;;;;11.90;92.20;;;;;;5098996;28;19924;-66
2022/11/20 00:10:09;;;;;;;;;;;;;;;;;;5133032;27;19935;-66
2022/11/20 00:12:35;;;;;;;;;;;11.80;92.10;;;;;;5115910;28;19923;-65
2022/11/20 00:15:01;;;;;;;;;;;11.70;92.10;;;;;;5115384;28;19930;-65
2022/11/20 00:17:26;;;;;;;;;;;11.60;92.00;;;;;;5123509;27;19924;-65
2022/11/20 00:19:52;;;;;;;;;;;11.70;92.10;;;;;;5122826;27;19923;-65
2022/11/20 00:22:18;;;;;;;;;;;11.80;92.10;;;;;;5118990;27;19930;-66
2022/11/20 00:24:43;;;;;;;;;;;11.70;92.10;;;;;;5134285;27;19965;-66
2022/11/20 00:27:09;;;;;;;;;;;11.60;92.10;;;;;;5117001;28;20453;-65
2022/11/20 00:29:34;;;;;;;;;;;11.90;92.20;;;;;;5116489;28;19963;-65
2022/11/20 00:32:00;;;;;;;;;;;11.70;92.10;;;;;;5117095;28;20381;-65
2022/11/20 00:34:26;;;;;;;;;;;11.90;92.10;;;;;;5117546;27;19920;-66
2022/11/20 00:36:51;;;;;;;;;;;11.60;92.10;;;;;;5116863;28;19931;-65
2022/11/20 00:39:17;;;;;;;;;;;11.90;92.20;;;;;;5116465;27;19981;-65
2022/11/20 00:41:43;;;;;;;;;;;;;;;;;;5116470;28;20061;-65
2022/11/20 00:44:09;;;;;;;;;;;11.70;92.20;;;;;;5115270;28;19947;-66
2022/11/20 00:46:34;;;;;;;;;;;11.80;92.20;;;;;;5116441;28;19920;-66
2022/11/20 00:49:00;;;;;;;;;;;11.70;92.20;;;;;;5128328;27;20037;-66
2022/11/20 00:51:26;;;;;;;;;;;11.70;92.20;;;;;;5125648;27;19924;-65
2022/11/20 00:53:52;;;;;;;;;;;11.80;92.20;;;;;;5127465;27;19924;-65
2022/11/20 00:56:18;;;;;;;;;;;11.70;92.20;;;;;;5135535;27;19924;-66
2022/11/20 00:58:45;;;;;;;;;;;11.80;92.20;;;;;;5104495;27;20300;-65
2022/11/20 01:01:11;;;;;;;;;;;11.70;92.20;;;;;;5135512;27;19931;-64
2022/11/20 01:03:38;;;;;;;;;;;11.70;92.30;;;;;;5136689;27;19924;-66
2022/11/20 01:06:04;;;;;;;;;;;11.90;92.30;;;;;;5136642;27;19930;-65
2022/11/20 01:08:31;;;;;;;;;;;11.60;92.20;;;;;;5134802;27;19924;-65
2022/11/20 01:11:04;;;;;;;;;;;11.80;92.20;;;;;;5121791;27;19931;-65
2022/11/20 01:13:39;;;;;;;;;;;11.60;92.20;;;;;;5115947;28;19934;-65
2022/11/20 01:16:09;;;;;;;;;;;11.60;92.10;;;;;;5115375;27;19934;-65
2022/11/20 01:18:35;;;;;;;;;;;11.60;92.10;;;;;;5097252;28;19930;-66
2022/11/20 01:21:06;;;;;;;;;;;11.80;92.20;;;;;;5132053;27;19923;-66
2022/11/20 01:23:33;;;;;;;;;;;11.80;92.30;;;;;;5135307;27;19946;-65
2022/11/20 01:25:59;;;;;;;;;;;11.70;92.20;;;;;;5117719;27;19927;-65
2022/11/20 01:28:25;;;;;;;;;;;11.40;92.20;;;;;;5135016;27;20014;-65
2022/11/20 01:30:50;;;;;;;;;;;11.60;92.20;;;;;;5135183;27;19931;-66
2022/11/20 01:33:16;;;;;;;;;;;11.70;92.20;;;;;;5133788;27;20356;-65
2022/11/20 01:35:42;;;;;;;;;;;11.40;92.20;;;;;;5136351;27;19973;-65
2022/11/20 01:38:08;;;;;;;;;;;;;;;;;;5136021;27;20289;-67
2022/11/20 01:40:33;;;;;;;;;;;11.50;92.20;;;;;;5132750;27;19924;-65
2022/11/20 01:43:20;;;;;;;;;;;11.70;92.30;;;;;;5134475;27;19931;-66
2022/11/20 01:46:01;;;;;;;;;;;11.60;92.30;;;;;;5135891;27;20024;-65
2022/11/20 01:48:31;;;;;;;;;;;11.50;92.30;;;;;;5134541;27;20014;-65
2022/11/20 01:50:57;;;;;;;;;;;11.50;92.30;;;;;;5116097;27;19927;-65
2022/11/20 01:53:24;;;;;;;;;;;11.70;92.30;;;;;;5117036;27;19977;-66
2022/11/20 01:55:51;;;;;;;;;;;11.70;92.30;;;;;;5134354;27;19930;-66
2022/11/20 01:58:16;;;;;;;;;;;11.50;92.20;;;;;;5098733;27;19931;-65
2022/11/20 02:00:42;;;;;;;;;;;11.70;92.30;;;;;;5111523;27;19919;-65
2022/11/20 02:03:13;;;;;;;;;;;11.60;92.30;;;;;;5134644;27;20045;-65
2022/11/20 02:05:41;;;;;;;;;;;11.40;92.20;;;;;;5115937;27;19982;-65
2022/11/20 02:08:07;;;;;;;;;;;11.40;92.10;;;;;;5096265;28;19974;-66
2022/11/20 02:10:33;;;;;;;;;;;11.60;92.20;;;;;;5130046;27;19978;-66
2022/11/20 02:15:42;;;;;;;;;;;11.50;92.20;;;;;;5130448;27;19924;-66
2022/11/20 02:18:09;;;;;;;;;;;11.60;92.30;;;;;;5096795;28;20412;-65
2022/11/20 02:20:34;;;;;;;;;;;11.50;92.20;;;;;;5107494;27;19934;-65
2022/11/20 02:23:00;;;;;;;;;;;11.60;92.20;;;;;;5135349;27;19924;-65
2022/11/20 02:25:26;;;;;;;;;;;11.40;92.20;;;;;;5135114;27;20300;-66
2022/11/20 02:27:51;;;;;;;;;;;11.60;92.30;;;;;;5117030;27;19930;-65
2022/11/20 02:30:17;;;;;;;;;;;11.50;92.20;;;;;;5131958;27;19970;-66
2022/11/20 02:32:42;;;;;;;;;;;11.30;92.20;;;;;;5118231;27;19923;-65
2022/11/20 02:35:17;;;;;;;;;;;11.60;92.30;;;;;;5135628;27;19939;-66
2022/11/20 02:37:43;;;;;;;;;;;11.40;92.30;;;;;;5135247;27;19932;-65
2022/11/20 02:40:09;;;;;;;;;;;11.50;92.30;;;;;;5116299;27;19928;-65
2022/11/20 02:42:35;;;;;;;;;;;11.60;92.40;;;;;;5130832;27;20335;-66
2022/11/20 02:45:01;;;;;;;;;;;11.60;92.40;;;;;;5135184;27;20292;-65
2022/11/20 02:47:26;;;;;;;;;;;11.40;92.30;;;;;;5134294;27;19923;-66
2022/11/20 02:49:52;;;;;;;;;;;11.50;92.30;;;;;;5110210;28;19923;-66
2022/11/20 02:52:18;;;;;;;;;;;;;;;;;;5126576;28;19923;-65
2022/11/20 02:54:43;;;;;;;;;;;11.40;92.40;;;;;;5134772;27;20376;-66
2022/11/20 02:57:09;;;;;;;;;;;11.40;92.40;;;;;;5133759;28;19976;-66
2022/11/20 02:59:35;;;;;;;;;;;11.40;92.40;;;;;;5117379;28;20384;-66
2022/11/20 03:02:00;;;;;;;;;;;11.60;92.40;;;;;;5120303;28;19924;-65
2022/11/20 03:04:26;;;;;;;;;;;11.40;92.30;;;;;;5131443;27;19974;-65
2022/11/20 03:06:52;;;;;;;;;;;11.60;92.40;;;;;;5133185;28;19923;-66
2022/11/20 03:09:17;;;;;;;;;;;11.70;92.40;;;;;;5116271;28;19924;-66
2022/11/20 03:11:43;;;;;;;;;;;11.40;92.30;;;;;;5132853;27;19930;-66
2022/11/20 03:14:08;;;;;;;;;;;11.30;92.30;;;;;;5114319;28;19934;-66
2022/11/20 03:16:34;;;;;;;;;;;11.40;92.30;;;;;;5114066;28;19923;-66
2022/11/20 03:19:00;;;;;;;;;;;11.50;92.30;;;;;;5113958;28;19924;-65
2022/11/20 03:21:25;;;;;;;;;;;11.70;92.30;;;;;;5113961;28;19924;-65
2022/11/20 03:23:52;;;;;;;;;;;11.60;92.30;;;;;;5131838;27;20019;-65
2022/11/20 03:26:18;;;;;;;;;;;;;;;;;;5137322;27;19923;-67
2022/11/20 03:28:48;;;;;;;;;;;11.30;92.20;;;;;;5139159;27;20022;-65
2022/11/20 03:31:14;;;;;;;;;;;11.70;92.40;;;;;;5137227;27;19924;-66
2022/11/20 03:33:39;;;;;;;;;;;11.50;92.40;;;;;;5107689;28;19931;-65
2022/11/20 03:36:06;;;;;;;;;;;11.50;92.40;;;;;;5118471;28;19924;-66
2022/11/20 03:38:32;;;;;;;;;;;11.20;92.30;;;;;;5116851;28;19924;-65
2022/11/20 03:41:01;;;;;;;;;;;11.40;92.30;;;;;;5118578;27;20301;-65
2022/11/20 03:43:27;;;;;;;;;;;11.30;92.30;;;;;;5123716;27;20304;-65
2022/11/20 03:45:53;;;;;;;;;;;;;;;;;;5136958;27;19923;-66
2022/11/20 03:48:19;;;;;;;;;;;11.20;92.30;;;;;;5154300;27;19935;-65
2022/11/20 03:50:47;;;;;;;;;;;11.50;92.40;;;;;;5136785;27;19923;-65
2022/11/20 03:53:15;;;;;;;;;;;11.60;92.30;;;;;;5135013;27;19923;-65
2022/11/20 03:55:41;;;;;;;;;;;;;;;;;;5116516;28;19931;-65
2022/11/20 03:58:07;;;;;;;;;;;11.30;92.30;;;;;;5118227;27;19924;-65
2022/11/20 04:00:33;;;;;;;;;;;11.50;92.30;;;;;;5117452;27;19924;-66
2022/11/20 04:02:59;;;;;;;;;;;;;;;;;;5136839;27;19934;-65
2022/11/20 04:05:25;;;;;;;;;;;11.30;92.30;;;;;;5136235;27;19930;-66
2022/11/20 04:07:50;;;;;;;;;;;11.40;92.30;;;;;;5138049;27;20284;-66
2022/11/20 04:10:16;;;;;;;;;;;11.50;92.30;;;;;;5138582;27;19923;-66
2022/11/20 04:12:42;;;;;;;;;;;11.40;92.30;;;;;;5138007;27;19923;-65
2022/11/20 04:15:07;;;;;;;;;;;11.50;92.30;;;;;;5122373;27;19923;-65
2022/11/20 04:17:33;;;;;;;;;;;11.40;92.30;;;;;;5135510;27;19968;-65
2022/11/20 04:19:59;;;;;;;;;;;11.60;92.40;;;;;;5128275;27;20021;-65
2022/11/20 04:22:24;;;;;;;;;;;11.40;92.30;;;;;;5117097;28;20010;-66
2022/11/20 04:24:50;;;;;;;;;;;11.30;92.30;;;;;;5117163;27;19969;-65
2022/11/20 04:27:15;;;;;;;;;;;11.40;92.10;;;;;;5117069;28;20346;-66
2022/11/20 04:29:41;;;;;;;;;;;11.30;92.30;;;;;;5116827;28;19975;-65
2022/11/20 04:32:07;;;;;;;;;;;11.40;92.30;;;;;;5117722;27;19966;-65
2022/11/20 04:34:32;;;;;;;;;;;11.30;92.30;;;;;;5132359;27;19927;-65
2022/11/20 04:36:58;;;;;;;;;;;11.20;92.30;;;;;;5115402;28;19935;-66
2022/11/20 04:39:23;;;;;;;;;;;11.60;92.40;;;;;;5116935;28;19923;-65
2022/11/20 04:42:28;;;;;;;;;;;11.20;92.30;;;;;;5116880;28;19924;-66
2022/11/20 04:44:35;;;;;;;;;;;11.30;92.30;;;;;;5116446;27;19969;-65
2022/11/20 04:47:00;;;;;;;;;;;11.40;92.30;;;;;;5115497;28;20016;-65
2022/11/20 04:49:26;;;;;;;;;;;11.60;92.40;;;;;;5117004;27;20057;-65
2022/11/20 04:51:55;;;;;;;;;;;11.40;92.40;;;;;;5121742;27;19924;-66
2022/11/20 04:54:20;;;;;;;;;;;11.50;92.40;;;;;;5136271;27;19927;-66
2022/11/20 04:56:49;;;;;;;;;;;11.30;92.30;;;;;;5135852;27;20376;-66
2022/11/20 04:59:15;;;;;;;;;;;11.60;92.40;;;;;;5132571;27;19923;-65
2022/11/20 05:01:41;;;;;;;;;;;11.40;92.30;;;;;;5115336;28;19942;-66
2022/11/20 05:04:06;;;;;;;;;;;11.50;92.40;;;;;;5115219;28;20356;-65
2022/11/20 05:06:32;;;;;;;;;;;11.30;92.30;;;;;;5116701;27;20289;-66
2022/11/20 05:08:58;;;;;;;;;;;11.20;92.30;;;;;;5116206;28;19924;-65
2022/11/20 05:11:23;;;;;;;;;;;11.30;92.30;;;;;;5116338;28;20011;-65
2022/11/20 05:13:49;;;;;;;;;;;;;;;;;;5114712;28;19924;-67
2022/11/20 05:16:18;;;;;;;;;;;11.50;92.30;;;;;;5115317;28;20010;-65
2022/11/20 05:18:44;;;;;;;;;;;11.20;92.20;;;;;;5116179;28;19923;-65
2022/11/20 05:21:10;;;;;;;;;;;11.20;92.20;;;;;;5116087;28;20425;-66
2022/11/20 05:23:35;;;;;;;;;;;11.50;92.30;;;;;;5116470;27;19923;-65
2022/11/20 05:26:01;;;;;;;;;;;11.40;92.30;;;;;;5116060;27;20304;-65
2022/11/20 05:28:27;;;;;;;;;;;11.30;92.30;;;;;;5115605;28;19946;-66
2022/11/20 05:30:53;;;;;;;;;;;11.30;92.30;;;;;;5115924;28;19924;-66
2022/11/20 05:33:18;;;;;;;;;;;11.10;92.30;;;;;;5128796;27;20023;-66
2022/11/20 05:35:44;;;;;;;;;;;11.50;92.30;;;;;;5134896;27;19924;-65
2022/11/20 05:38:10;;;;;;;;;;;11.30;92.30;;;;;;5134051;27;19920;-66
2022/11/20 05:40:35;;;;;;;;;;;11.40;92.30;;;;;;5135636;27;19948;-65
2022/11/20 05:43:01;;;;;;;;;;;11.20;92.20;;;;;;5134686;27;19928;-65
2022/11/20 05:45:27;;;;;;;;;;;11.10;92.20;;;;;;5135265;27;19931;-65
2022/11/20 05:47:52;;;;;;;;;;;11.50;92.30;;;;;;5132801;27;19968;-65
2022/11/20 05:50:18;;;;;;;;;;;11.20;92.30;;;;;;5136086;27;19928;-65
2022/11/20 05:52:44;;;;;;;;;;;11.40;92.30;;;;;;5135279;27;20010;-66
2022/11/20 05:55:10;;;;;;;;;;;;;;;;;;5136264;27;19923;-68
2022/11/20 05:57:35;;;;;;;;;;;11.40;92.30;;;;;;5129780;27;19923;-66
2022/11/20 06:00:01;;;;;;;;;;;11.30;92.30;;;;;;5135549;27;19956;-66
2022/11/20 06:02:27;;;;;;;;;;;11.10;92.30;;;;;;5117481;27;20394;-65
2022/11/20 06:04:53;;;;;;;;;;;11.30;92.40;;;;;;5133212;27;19923;-66
2022/11/20 06:07:18;;;;;;;;;;;11.50;92.40;;;;;;5133224;27;20034;-66
2022/11/20 06:09:44;;;;;;;;;;;11.30;92.30;;;;;;5134501;27;20399;-66
2022/11/20 06:12:09;;;;;;;;;;;11.30;92.40;;;;;;5135689;27;20293;-66
2022/11/20 06:14:35;;;;;;;;;;;11.30;92.30;;;;;;5134666;27;19927;-65
2022/11/20 06:17:01;;;;;;;;;;;11.30;92.30;;;;;;5134401;27;19927;-66
2022/11/20 06:19:26;;;;;;;;;;;11.40;92.30;;;;;;5135547;27;20361;-66
2022/11/20 06:21:52;;;;;;;;;;;11.40;92.40;;;;;;5135535;27;20335;-66
2022/11/20 06:24:18;;;;;;;;;;;11.20;92.30;;;;;;5135342;27;19927;-65
2022/11/20 06:26:43;;;;;;;;;;;11.20;92.30;;;;;;5135422;27;20321;-65
2022/11/20 06:29:09;;;;;;;;;;;11.30;92.30;;;;;;5115405;27;20356;-65
2022/11/20 06:31:37;;;;;;;;;;;11.10;92.30;;;;;;5134672;27;19958;-65
2022/11/20 06:34:06;;;;;;;;;;;11.00;92.30;;;;;;5135664;27;19924;-65
2022/11/20 06:36:31;;;;;;;;;;;11.40;92.40;;;;;;5135318;27;19925;-65
2022/11/20 06:38:57;;;;;;;;;;;11.20;92.40;;;;;;5132726;27;19927;-65
2022/11/20 06:41:23;;;;;;;;;;;11.40;92.40;;;;;;5117854;27;20300;-67
2022/11/20 06:43:48;;;;;;;;;;;11.30;92.40;;;;;;5133694;27;19927;-65
2022/11/20 06:46:17;;;;;;;;;;;11.40;92.40;;;;;;5133970;27;19923;-65
2022/11/20 06:48:43;;;;;;;;;;;11.50;92.30;;;;;;5119610;27;19924;-65
2022/11/20 06:51:08;;;;;;;;;;;11.50;92.30;;;;;;5114259;28;19934;-65
2022/11/20 06:53:34;;;;;;;;;;;11.30;92.30;;;;;;5113474;28;19924;-65
2022/11/20 06:56:00;;;;;;;;;;;11.10;92.20;;;;;;5113026;28;20006;-66
2022/11/20 06:58:26;;;;;;;;;;;11.40;92.20;;;;;;5115552;28;20396;-66
2022/11/20 07:00:52;;;;;;;;;;;11.10;92.10;;;;;;5133511;28;19931;-65
2022/11/20 07:03:17;;;;;;;;;;;11.30;92.10;;;;;;5126158;28;19927;-66
2022/11/20 07:05:44;;;;;;;;;;;11.30;92.10;;;;;;5113653;28;19924;-66
2022/11/20 07:08:10;;;;;;;;;;;11.50;92.20;;;;;;5113788;28;19970;-65
2022/11/20 07:10:36;;;;;;;;;;;11.30;92.10;;;;;;5112794;28;19931;-66
2022/11/20 07:13:02;;;;;;;;;;;11.50;92.20;;;;;;5112246;28;20370;-65
2022/11/20 07:15:27;;;;;;;;;;;11.30;92.10;;;;;;5113482;28;19931;-64
2022/11/20 07:17:53;;;;;;;;;;;11.30;92.20;;;;;;5113133;28;19931;-66
2022/11/20 07:20:19;;;;;;;;;;;11.40;92.20;;;;;;5125925;28;19930;-65
2022/11/20 07:22:44;;;;;;;;;;;11.20;92.20;;;;;;5124327;27;19928;-66
2022/11/20 07:25:10;;;;;;;;;;;11.20;92.20;;;;;;5112979;28;19924;-65
2022/11/20 07:27:36;;;;;;;;;;;11.20;92.20;;;;;;5112946;28;19923;-66
2022/11/20 07:30:05;;;;;;;;;;;11.30;92.10;;;;;;5120550;28;19924;-65
2022/11/20 07:32:30;;;;;;;;;;;11.40;92.20;;;;;;5133119;28;19923;-64
2022/11/20 07:34:56;;;;;;;;;;;;;;;;;;5133468;27;19926;-66
2022/11/20 07:37:22;;;;;;;;;;;11.40;92.20;;;;;;5133726;28;19924;-65
2022/11/20 07:39:48;;;;;;;;;;;;;;;;;;5118097;28;19928;-69
2022/11/20 07:42:14;;;;;;;;;;;11.60;92.20;;;;;;5127289;28;20270;-65
2022/11/20 07:44:40;;;;;;;;;;;11.50;92.10;;;;;;5133309;27;19968;-66
2022/11/20 07:47:05;;;;;;;;;;;11.30;92.10;;;;;;5133219;27;19924;-65
2022/11/20 07:49:31;;;;;;;;;;;11.30;92.10;;;;;;5115219;28;19924;-65
2022/11/20 07:51:57;;;;;;;;;;;11.50;92.20;;;;;;5052767;27;1950199;-65
2022/11/20 07:54:23;;;;;;;;;;;11.50;92.20;;;;;;5112440;28;19924;-66
2022/11/20 07:56:48;;;;;;;;;;;11.30;92.10;;;;;;5114295;28;19935;-74
2022/11/20 07:59:15;;;;;;;;;;;11.70;92.20;;;;;;5113208;28;19924;-68
2022/11/20 08:01:41;;;;;;;;;;;;;;;;;;5115751;28;20010;-65
2022/11/20 08:04:07;;;;;;;;;;;11.50;92.10;;;;;;5114559;28;19976;-66
2022/11/20 08:06:33;;;;;;;;;;;11.70;92.20;;;;;;5132239;28;20346;-66
2022/11/20 08:08:59;;;;;;;;;;;11.40;92.10;;;;;;5134959;27;19931;-65
2022/11/20 08:14:11;;;;;;;;;;;11.70;92.10;;;;;;5121153;27;20269;-64
2022/11/20 08:16:37;;;;;;;;;;;11.70;92.10;;;;;;5123136;27;20289;-66
2022/11/20 08:19:03;;;;;;;;;;;11.60;92.10;;;;;;5116101;28;19967;-69
2022/11/20 08:21:29;;;;;;;;;;;11.30;92.10;;;;;;5124321;27;20422;-66
2022/11/20 08:23:55;;;;;;;;;;;11.70;92.20;;;;;;5137754;27;20361;-66
2022/11/20 08:26:21;;;;;;;;;;;11.60;92.20;;;;;;5117244;27;20039;-66
2022/11/20 08:28:47;;;;;;;;;;;11.80;92.30;;;;;;5127647;27;19927;-65
2022/11/20 08:31:12;;;;;;;;;;;11.50;92.30;;;;;;5119327;27;19931;-65
2022/11/20 08:33:38;;;;;;;;;;;11.60;92.30;;;;;;5115616;28;19981;-67
2022/11/20 08:36:04;;;;;;;;;;;11.60;92.20;;;;;;5116130;28;19924;-66
2022/11/20 08:38:30;;;;;;;;;;;11.50;92.20;;;;;;5094164;28;20003;-66
2022/11/20 08:43:43;;;;;;;;;;;11.60;92.20;;;;;;5115408;28;19930;-66
2022/11/20 08:46:09;;;;;;;;;;;11.60;92.20;;;;;;5125520;27;19920;-65
2022/11/20 08:48:34;;;;;;;;;;;11.70;92.20;;;;;;5115880;28;19924;-69
2022/11/20 08:51:00;;;;;;;;;;;11.80;92.20;;;;;;5116479;28;19967;-75
2022/11/20 08:53:26;;;;;;;;;;;;;;;;;;5116159;28;19923;-67
2022/11/20 08:55:52;;;;;;;;;;;11.70;92.20;;;;;;5115766;27;19930;-72
2022/11/20 08:58:17;;;;;;;;;;;11.70;92.20;;;;;;5116631;28;20015;-65
2022/11/20 09:00:43;;;;;;;;;;;;;;;;;;5116038;28;20428;-71
2022/11/20 09:03:10;;;;;;;;;;;;;;;;;;5115735;27;19923;-72
2022/11/20 09:05:35;;;;;;;;;;;11.80;92.10;;;;;;5119116;27;19924;-66
2022/11/20 09:08:01;;;;;;;;;;;;;;;;;;5127430;27;19932;-65
2022/11/20 09:10:27;;;;;;;;;;;11.80;92.10;;;;;;5136915;27;19923;-71
2022/11/20 09:12:54;;;;;;;;;;;11.50;92.10;;;;;;5136928;27;19924;-67
2022/11/20 09:15:20;;;;;;;;;;;11.50;92.20;;;;;;5135561;27;19931;-65
2022/11/20 09:17:56;;;;;;;;;;;11.70;92.20;;;;;;5136796;27;19923;-66
2022/11/20 09:20:22;;;;;;;;;;;11.40;91.90;;;;;;5130877;27;19950;-65
2022/11/20 09:22:48;;;;;;;;;;;11.30;92.10;;;;;;5097791;28;19927;-65
2022/11/20 09:25:13;;;;;;;;;;;11.60;92.20;;;;;;5097535;28;20401;-69
2022/11/20 09:27:41;;;;;;;;;;;11.70;92.20;;;;;;5114646;28;19931;-68
2022/11/20 09:30:07;;;;;;;;;;;11.60;92.20;;;;;;5114417;28;19931;-65
2022/11/20 09:32:32;;;;;;;;;;;11.70;92.20;;;;;;5131592;27;19927;-67
2022/11/20 09:34:58;;;;;;;;;;;11.70;92.20;;;;;;5134340;27;19923;-68
2022/11/20 09:37:24;;;;;;;;;;;11.70;92.30;;;;;;5132622;27;19928;-67
2022/11/20 09:39:49;;;;;;;;;;;11.70;92.30;;;;;;5122288;27;20010;-75
2022/11/20 09:42:15;;;;;;;;;;;11.50;92.30;;;;;;5122387;27;19924;-66
2022/11/20 09:44:47;;;;;;;;;;;11.70;92.30;;;;;;5115400;28;20350;-71
2022/11/20 09:47:16;;;;;;;;;;;11.60;92.30;;;;;;5130449;27;19977;-68
2022/11/20 09:50:12;;;;;;;;;;;11.80;92.40;;;;;;5114099;28;20385;-66
2022/11/20 09:52:42;;;;;;;;;;;12.00;92.40;;;;;;5115094;27;19923;-68
2022/11/20 09:55:11;;;;;;;;;;;11.70;92.00;;;;;;5126399;27;19931;-66
2022/11/20 09:57:38;;;;;;;;;;;11.80;92.00;;;;;;5114143;28;20266;-73
2022/11/20 10:00:06;;;;;;;;;;;11.80;92.30;;;;;;5118690;27;20381;-71
2022/11/20 10:02:52;;;;;;;;;;;11.90;92.30;;;;;;5133156;27;19923;-66
2022/11/20 10:05:36;;;;;;;;;;;11.90;92.30;;;;;;5133661;27;19929;-66
2022/11/20 10:08:21;;;;;;;;;;;11.80;92.30;;;;;;5133315;27;19983;-67
2022/11/20 10:10:59;;;;;;;;;;;11.80;92.30;;;;;;5136056;27;19923;-66
2022/11/20 10:13:31;;;;;;;;;;;11.80;92.30;;;;;;5114943;27;20338;-72
2022/11/20 10:16:11;;;;;;;;;;;11.90;92.30;;;;;;5120969;27;20025;-68
2022/11/20 10:18:51;;;;;;;;;;;11.90;92.20;;;;;;5121684;27;20339;-66
2022/11/20 10:21:26;;;;;;;;;;;11.90;92.20;;;;;;5121339;27;19923;-66
2022/11/20 10:23:52;;;;;;;;;;;11.90;92.10;;;;;;5112087;27;20385;-66
2022/11/20 10:26:36;;;;;;;;;;;11.80;92.10;;;;;;5122729;27;19928;-65
2022/11/20 10:29:18;;;;;;;;;;;11.90;92.10;;;;;;5120813;27;19931;-71
2022/11/20 10:31:54;;;;;;;;;;;11.90;92.10;;;;;;5123307;27;19924;-66
2022/11/20 10:34:20;;;;;;;;;;;11.90;92.10;;;;;;5132273;27;20284;-65
2022/11/20 10:36:46;;;;;;;;;;;;;;;;;;5125598;27;19931;-67
2022/11/20 10:39:16;;;;;;;;;;;12.10;92.10;;;;;;5119495;27;19924;-66
2022/11/20 10:41:47;;;;;;;;;;;11.90;92.00;;;;;;5131675;27;19923;-67
2022/11/20 10:45:00;;;;;;;;;;;12.10;92.00;;;;;;5130942;27;19924;-71
2022/11/20 10:47:03;;;;;;;;;;;11.80;91.90;;;;;;5124921;27;20380;-65
2022/11/20 10:49:29;;;;;;;;;;;11.90;91.50;;;;;;5116618;27;20312;-65
2022/11/20 10:51:56;;;;;;;;;;;;;;;;;;5119483;27;19924;-67
2022/11/20 10:54:24;;;;;;;;;;;11.90;91.90;;;;;;5115436;27;19924;-67
2022/11/20 10:56:51;;;;;;;;;;;11.90;92.00;;;;;;5128161;28;19977;-68
2022/11/20 10:59:36;;;;;;;;;;;12.10;92.00;;;;;;5122842;28;20006;-65
2022/11/20 11:02:02;;;;;;;;;;;;;;;;;;5132593;28;19924;-66
2022/11/20 11:04:28;;;;;;;;;;;11.90;91.20;;;;;;5112824;28;19969;-64
2022/11/20 11:06:54;;;;;;;;;;;;;;;;;;5125165;27;19967;-65
2022/11/20 11:09:22;;;;;;;;;;;11.80;90.90;;;;;;5123547;28;19930;-66
2022/11/20 11:11:48;;;;;;;;;;;;;;;;;;5110812;28;20538;-65
2022/11/20 11:14:14;;;;;;;;;;;11.90;90.40;;;;;;5118326;28;19980;-68
2022/11/20 11:16:40;;;;;;;;;;;;;;;;;;5131024;28;19927;-68
2022/11/20 11:19:07;;;;;;;;;;;;;;;;;;5118189;28;19930;-68
2022/11/20 11:21:33;;;;;;;;;;;11.90;91.00;;;;;;5118292;28;19920;-66
2022/11/20 11:24:03;;;;;;;;;;;11.70;90.90;;;;;;5130591;28;19934;-67
2022/11/20 11:26:29;;;;;;;;;;;11.90;91.00;;;;;;5111708;28;19923;-67
2022/11/20 11:28:55;;;;;;;;;;;;;;;;;;5119063;28;20030;-66
2022/11/20 11:31:23;;;;;;;;;;;11.60;91.10;;;;;;5126747;28;19923;-69
2022/11/20 11:33:49;;;;;;;;;;;12.00;91.20;;;;;;5126120;27;20520;-66
2022/11/20 11:36:15;;;;;;;;;;;;;;;;;;5120276;28;19928;-66
2022/11/20 11:38:45;;;;;;;;;;;11.90;91.10;;;;;;5115675;28;20003;-66
2022/11/20 11:41:17;;;;;;;;;;;11.90;91.10;;;;;;5119808;28;20438;-64
2022/11/20 11:46:41;;;;;;;;;;;12.00;91.50;;;;;;5123564;27;20002;-63
2022/11/20 11:49:12;;;;;;;;;;;11.90;91.30;;;;;;5117342;27;19983;-66
2022/11/20 11:51:39;;;;;;;;;;;;;;;;;;5134303;27;20293;-71
2022/11/20 11:54:07;;;;;;;;;;;;;;;;;;5123565;27;19932;-70
2022/11/20 11:56:33;;;;;;;;;;;11.80;90.80;;;;;;5115516;28;19947;-68
2022/11/20 11:59:00;;;;;;;;;;;12.10;91.00;;;;;;5133165;27;20284;-64
2022/11/20 12:01:26;;;;;;;;;;;11.90;91.00;;;;;;5114886;27;19993;-64
2022/11/20 12:04:15;;;;;;;;;;;11.60;91.00;;;;;;5125335;27;19963;-73
2022/11/20 12:06:42;;;;;;;;;;;11.90;91.00;;;;;;5116743;27;20300;-66
2022/11/20 12:09:08;;;;;;;;;;;12.10;91.00;;;;;;5133620;27;19928;-66
2022/11/20 12:11:34;;;;;;;;;;;;;;;;;;5132232;27;20039;-69
2022/11/20 12:14:03;;;;;;;;;;;;;;;;;;5114676;27;20400;-70
2022/11/20 12:16:29;;;;;;;;;;;11.70;90.00;;;;;;5121017;27;19972;-64
2022/11/20 12:18:54;;;;;;;;;;;11.80;88.80;;;;;;5111641;27;19932;-72
2022/11/20 12:21:20;;;;;;;;;;;;;;;;;;5110515;27;19935;-69
2022/11/20 12:23:46;;;;;;;;;;;11.40;88.50;;;;;;5137828;27;19927;-65
2022/11/20 12:26:30;;;;;;;;;;;11.30;88.30;;;;;;5132259;27;19930;-66
2022/11/20 12:28:56;;;;;;;;;;;;;;;;;;5134820;27;20036;-65
2022/11/20 12:31:23;;;;;;;;;;;;;;;;;;5117571;27;19939;-65
2022/11/20 12:33:49;;;;;;;;;;;11.30;88.00;;;;;;5117449;27;20027;-64
2022/11/20 12:36:14;;;;;;;;;;;11.20;88.50;;;;;;5132558;27;19998;-68
2022/11/20 12:38:43;;;;;;;;;;;11.00;88.70;;;;;;5127448;27;19924;-64
2022/11/20 12:41:13;;;;;;;;;;;11.10;88.60;;;;;;5120921;27;19924;-64
2022/11/20 12:46:32;;;;;;;;;;;;;;;;;;5128487;27;19931;-74
2022/11/20 12:48:59;;;;;;;;;;;;;;;;;;5123058;27;19988;-67
2022/11/20 12:51:31;;;;;;;;;;;10.80;87.90;;;;;;5119994;27;20300;-70
2022/11/20 12:54:20;;;;;;;;;;;10.80;86.90;;;;;;5131033;27;20285;-70
2022/11/20 12:56:47;;;;;;;;;;;;;;;;;;5115400;27;19943;-64
2022/11/20 12:59:13;;;;;;;;;;;;;;;;;;5123918;27;19928;-76
2022/11/20 13:01:40;;;;;;;;;;;;;;;;;;5115120;27;20449;-70
2022/11/20 13:04:07;;;;;;;;;;;;;;;;;;5123193;27;19925;-65
2022/11/20 13:06:33;;;;;;;;;;;;;;;;;;5113040;27;20010;-70
2022/11/20 13:08:59;;;;;;;;;;;;;;;;;;5113993;27;19931;-71
2022/11/20 13:11:25;;;;;;;;;;;;;;;;;;5123080;27;19951;-72
2022/11/20 13:14:10;;;;;;;;;;;10.70;85.90;;;;;;5127415;27;20416;-77
2022/11/20 13:16:36;;;;;;;;;;;;;;;;;;5127634;27;19924;-66
2022/11/20 13:19:02;;;;;;;;;;;10.50;85.70;;;;;;5121720;27;19930;-63
2022/11/20 13:21:28;;;;;;;;;;;;;;;;;;5108990;28;19924;-73
2022/11/20 13:24:03;;;;;;;;;;;10.40;85.90;;;;;;5117222;27;19928;-66
2022/11/20 13:26:29;;;;;;;;;;;;;;;;;;5115236;27;19939;-67
2022/11/20 13:28:55;;;;;;;;;;;;;;;;;;5122723;27;19928;-66
2022/11/20 13:31:21;;;;;;;;;;;;;;;;;;5128865;27;20280;-72
2022/11/20 13:33:47;;;;;;;;;;;;;;;;;;5118074;27;19928;-66
2022/11/20 13:36:14;;;;;;;;;;;;;;;;;;5117973;27;20341;-67
2022/11/20 13:38:40;;;;;;;;;;;;;;;;;;5114598;27;19927;-64
2022/11/20 13:41:27;;;;;;;;;;;10.10;86.60;;;;;;5112019;28;20027;-68
2022/11/20 13:43:52;;;;;;;;;;;10.10;85.90;;;;;;5112332;27;19924;-65
2022/11/20 13:46:24;;;;;;;;;;;;;;;;;;5096202;28;19927;-67
2022/11/20 13:48:50;;;;;;;;;;;10.10;86.30;;;;;;5130894;27;19924;-67
2022/11/20 13:51:15;;;;;;;;;;;9.90;86.60;;;;;;5114408;27;20072;-65
2022/11/20 13:53:41;;;;;;;;;;;9.90;86.70;;;;;;5130402;27;20021;-70
2022/11/20 13:56:07;;;;;;;;;;;;;;;;;;5130796;27;19923;-73
2022/11/20 13:58:33;;;;;;;;;;;;;;;;;;5111320;28;19927;-66
2022/11/20 14:00:59;;;;;;;;;;;;;;;;;;5111114;28;20454;-65
2022/11/20 14:03:26;;;;;;;;;;;;;;;;;;5121359;27;19998;-66
2022/11/20 14:05:53;;;;;;;;;;;;;;;;;;5129346;27;19930;-65
2022/11/20 14:08:19;;;;;;;;;;;;;;;;;;5119299;27;19928;-72
2022/11/20 14:10:44;;;;;;;;;;;10.10;86.90;;;;;;5118457;27;19935;-72
2022/11/20 14:13:19;;;;;;;;;;;10.30;86.80;;;;;;5131707;27;19927;-70
2022/11/20 14:15:46;;;;;;;;;;;;;;;;;;5132002;27;20050;-67
2022/11/20 14:18:12;;;;;;;;;;;;;;;;;;5112762;27;20001;-66
2022/11/20 14:20:38;;;;;;;;;;;;;;;;;;5122492;27;19974;-67
2022/11/20 14:23:05;;;;;;;;;;;;;;;;;;5127804;27;19923;-65
2022/11/20 14:25:31;;;;;;;;;;;;;;;;;;5111816;27;20071;-72
2022/11/20 14:27:59;;;;;;;;;;;9.70;86.50;;;;;;5120336;27;19931;-65
2022/11/20 14:30:25;;;;;;;;;;;;;;;;;;5108213;27;19923;-67
2022/11/20 14:32:51;;;;;;;;;;;10.20;86.20;;;;;;5113470;27;20319;-70
2022/11/20 14:35:18;;;;;;;;;;;;;;;;;;5127837;27;20176;-66
2022/11/20 14:37:45;;;;;;;;;;;;;;;;;;5114597;27;19920;-68
2022/11/20 14:40:27;;;;;;;;;;;10.20;86.60;;;;;;5113534;27;19930;-66
2022/11/20 14:42:53;;;;;;;;;;;;;;;;;;5116969;27;19924;-66
2022/11/20 14:45:19;;;;;;;;;;;;;;;;;;5116954;27;19920;-69
2022/11/20 14:47:45;;;;;;;;;;;;;;;;;;5112079;27;19928;-68
2022/11/20 14:50:11;;;;;;;;;;;;;;;;;;5127108;27;19951;-70
2022/11/20 14:52:37;;;;;;;;;;;;;;;;;;5118448;27;20432;-68
2022/11/20 14:55:03;;;;;;;;;;;;;;;;;;5121361;27;19935;-66
2022/11/20 14:57:29;;;;;;;;;;;;;;;;;;5117501;27;19928;-67